Time;durP1;ratioP1;P1;durP2;ratioP2;P2;SDS_P1;SDS_P2;PMS_P1;PMS_P2;Temp;Humidity;BMP_temperature;BMP_pressure;BME280_temperature;BME280_humidity;BME280_pressure;Samples;Min_cycle;Max_cycle;Signal;HPM_P1;HPM_P2
2022/12/28 00:00:16;;;;;;;;;6.50;6.50;;;;;9.14;82.24;101208.47;5035884;28;45482;-68
2022/12/28 00:02:41;;;;;;;;;9.25;9.25;;;;;9.17;82.53;101208.41;5035736;28;46162;-65
2022/12/28 00:05:07;;;;;;;;;9.25;9.25;;;;;9.17;82.28;101192.66;5035900;28;45898;-68
2022/12/28 00:07:32;;;;;;;;;8.00;6.50;;;;;9.19;82.53;101190.84;5036032;28;45446;-65
2022/12/28 00:09:58;;;;;;;;;8.75;8.75;;;;;9.13;82.42;101180.50;5017944;28;47995;-65
2022/12/28 00:12:23;;;;;;;;;8.00;8.00;;;;;9.19;82.27;101180.34;5037399;28;46112;-66
2022/12/28 00:14:48;;;;;;;;;8.00;8.00;;;;;9.17;82.18;101184.78;5035599;28;45420;-69
2022/12/28 00:17:14;;;;;;;;;7.25;7.25;;;;;9.20;82.19;101183.84;5035135;28;59232;-69
2022/12/28 00:19:39;;;;;;;;;8.00;8.00;;;;;9.21;81.95;101182.94;5035952;28;45261;-64
2022/12/28 00:22:04;;;;;;;;;9.00;9.00;;;;;9.21;82.09;101180.31;5035624;28;45256;-67
2022/12/28 00:24:30;;;;;;;;;6.75;6.75;;;;;9.21;81.94;101175.06;5035557;28;46320;-66
2022/12/28 00:26:55;;;;;;;;;7.25;7.25;;;;;9.23;82.00;101173.28;5036663;28;45307;-66
2022/12/28 00:29:21;;;;;;;;;7.50;7.00;;;;;9.26;82.48;101159.19;5039459;28;45642;-69
2022/12/28 00:31:47;;;;;;;;;6.75;6.75;;;;;9.23;82.16;101156.66;5036176;28;45214;-64
2022/12/28 00:34:12;;;;;;;;;4.00;4.00;;;;;9.25;82.17;101160.09;5035488;28;45425;-65
2022/12/28 00:36:38;;;;;;;;;6.25;6.25;;;;;9.26;81.98;101154.81;5035694;28;45331;-64
2022/12/28 00:39:03;;;;;;;;;9.75;9.00;;;;;9.29;81.80;101165.25;5035665;28;45400;-63
2022/12/28 00:41:28;;;;;;;;;5.50;5.50;;;;;9.28;82.08;101145.13;5018132;28;46251;-65
2022/12/28 00:43:54;;;;;;;;;4.00;4.00;;;;;9.29;82.29;101136.34;5036593;28;45290;-69
2022/12/28 00:46:19;;;;;;;;;6.50;6.50;;;;;9.28;81.84;101141.63;5037737;28;45543;-64
2022/12/28 00:48:44;;;;;;;;;6.00;6.00;;;;;9.30;82.19;101134.59;5038161;28;45563;-63
2022/12/28 00:51:13;;;;;;;;;7.25;7.25;;;;;9.31;81.84;101136.31;5034793;28;64861;-64
2022/12/28 00:53:39;;;;;;;;;4.00;4.00;;;;;9.15;81.79;101102.59;5035067;28;45951;-64
2022/12/28 00:56:13;;;;;;;;;7.75;7.75;;;;;9.32;81.76;101127.53;5035174;28;45417;-66
2022/12/28 00:58:38;;;;;;;;;6.00;6.00;;;;;9.32;81.95;101131.03;5019554;28;45356;-63
2022/12/28 01:01:05;;;;;;;;;8.00;8.00;;;;;9.33;82.08;101126.63;5034754;28;46263;-63
2022/12/28 01:03:31;;;;;;;;;5.00;5.00;;;;;9.30;82.08;101124.97;5034948;28;45304;-64
2022/12/28 01:05:56;;;;;;;;;6.25;6.25;;;;;9.35;81.96;101127.44;5035398;28;45317;-67
2022/12/28 01:08:22;;;;;;;;;6.00;6.00;;;;;9.37;81.95;101122.16;5035963;28;45309;-66
2022/12/28 01:10:47;;;;;;;;;6.00;6.00;;;;;9.28;81.80;101107.50;5038519;28;46198;-67
2022/12/28 01:13:13;;;;;;;;;7.00;7.00;;;;;9.37;81.84;101112.50;5038334;28;45437;-70
2022/12/28 01:15:38;;;;;;;;;5.50;5.50;;;;;9.38;82.08;101116.88;5038138;28;54224;-68
2022/12/28 01:18:04;;;;;;;;;7.25;7.25;;;;;9.37;82.08;101117.75;5038517;28;45567;-64
2022/12/28 01:20:29;;;;;;;;;5.75;5.75;;;;;9.38;82.08;101105.50;5038467;28;46192;-65
2022/12/28 01:22:55;;;;;;;;;6.50;6.50;;;;;9.39;81.72;101102.81;5038436;28;45409;-65
2022/12/28 01:25:20;;;;;;;;;5.25;5.25;;;;;9.39;82.10;101104.63;5038422;28;45395;-65
2022/12/28 01:27:46;;;;;;;;;4.75;4.75;;;;;9.39;81.76;101102.81;5038378;28;45269;-64
2022/12/28 01:30:13;;;;;;;;;5.00;5.00;;;;;9.39;82.03;101102.00;5038143;28;46050;-64
2022/12/28 01:32:38;;;;;;;;;6.00;6.00;;;;;9.40;81.85;101101.09;5038413;28;45337;-66
2022/12/28 01:35:04;;;;;;;;;3.75;3.75;;;;;9.42;82.45;101100.13;5038314;28;45337;-65
2022/12/28 01:37:29;;;;;;;;;7.50;7.50;;;;;9.43;81.74;101114.13;5038652;28;45518;-68
2022/12/28 01:39:55;;;;;;;;;3.00;3.00;;;;;9.45;81.60;101107.91;5038134;28;46280;-62
2022/12/28 01:42:20;;;;;;;;;5.50;5.50;;;;;9.45;81.64;101107.91;5038126;28;45227;-63
2022/12/28 01:44:50;;;;;;;;;5.50;5.50;;;;;9.48;81.79;101107.84;5039114;28;45341;-65
2022/12/28 01:47:35;;;;;;;;;5.00;5.00;;;;;9.52;81.68;101115.63;5020077;28;45444;-64
2022/12/28 01:50:18;;;;;;;;;4.50;4.50;;;;;9.52;81.71;101110.38;5037938;28;46288;-66
2022/12/28 01:52:58;;;;;;;;;6.00;6.00;;;;;9.55;81.53;101105.06;5037639;28;45225;-64
2022/12/28 01:55:30;;;;;;;;;6.00;6.00;;;;;9.55;81.55;101098.03;5038211;28;45539;-64
2022/12/28 01:58:19;;;;;;;;;5.50;5.50;;;;;9.58;81.40;101099.72;5038031;28;45372;-63
2022/12/28 02:00:45;;;;;;;;;6.00;6.00;;;;;9.57;81.19;101088.34;5037632;28;45549;-64
2022/12/28 02:03:15;;;;;;;;;11.50;11.50;;;;;9.59;81.24;101083.06;5040801;28;45229;-65
2022/12/28 02:05:44;;;;;;;;;5.25;5.25;;;;;9.61;81.52;101091.75;5038717;28;45338;-66
2022/12/28 02:08:12;;;;;;;;;5.50;5.50;;;;;9.61;81.52;101086.50;5037798;28;45395;-63
2022/12/28 02:10:39;;;;;;;;;5.25;5.25;;;;;9.62;81.57;101081.19;5019356;28;46813;-65
2022/12/28 02:13:05;;;;;;;;;6.00;6.00;;;;;9.63;81.27;101082.06;5037228;28;45436;-64
2022/12/28 02:15:31;;;;;;;;;5.25;5.25;;;;;9.63;81.43;101079.44;5037890;28;45431;-64
2022/12/28 02:17:57;;;;;;;;;6.00;6.00;;;;;9.64;81.05;101075.91;5037627;28;45407;-68
2022/12/28 02:20:31;;;;;;;;;7.25;7.25;;;;;9.66;81.18;101068.84;5019179;28;47101;-65
2022/12/28 02:23:17;;;;;;;;;6.75;6.00;;;;;9.67;81.42;101081.09;5037339;28;45344;-68
2022/12/28 02:25:45;;;;;;;;;6.25;6.25;;;;;9.68;81.48;101071.41;5037497;28;45474;-64
2022/12/28 02:28:38;;;;;;;;;6.00;6.00;;;;;9.68;81.59;101068.78;5037555;28;45225;-63
2022/12/28 02:31:16;;;;;;;;;6.75;6.00;;;;;9.64;80.97;101049.66;5039001;28;46607;-64
2022/12/28 02:33:53;;;;;;;;;15.50;15.50;;;;;9.68;81.54;101059.16;5037398;28;45250;-63
2022/12/28 02:36:26;;;;;;;;;5.00;5.00;;;;;9.68;81.26;101064.41;5039828;28;45303;-65
2022/12/28 02:39:01;;;;;;;;;5.00;5.00;;;;;9.71;81.01;101064.31;5037759;28;45340;-64
2022/12/28 02:41:29;;;;;;;;;7.00;7.00;;;;;9.67;80.75;101054.81;5037124;28;45272;-68
2022/12/28 02:43:58;;;;;;;;;6.75;6.75;;;;;9.72;81.26;101057.28;5037105;28;45351;-65
2022/12/28 02:52:22;;;;;;;;;7.00;7.00;;;;;9.72;81.34;101052.03;5037329;28;45422;-65
2022/12/28 02:58:33;;;;;;;;;7.25;7.25;;;;;9.73;81.01;101045.88;5037168;28;45262;-66
2022/12/28 03:01:08;;;;;;;;;8.00;8.00;;;;;9.71;81.05;101035.44;5037339;28;45448;-68
2022/12/28 03:03:48;;;;;;;;;6.50;6.50;;;;;9.71;81.60;101026.69;5037170;28;45343;-65
2022/12/28 03:09:49;;;;;;;;;7.25;7.25;;;;;9.67;81.42;101022.41;5038118;28;45421;-64
2022/12/28 03:12:28;;;;;;;;;6.25;6.25;;;;;9.68;81.32;101027.63;5026342;28;45415;-66
2022/12/28 03:15:05;;;;;;;;;3.75;3.75;;;;;9.70;81.76;101030.22;5042917;28;45578;-67
2022/12/28 03:31:31;;;;;;;;;7.00;7.00;;;;;9.69;81.70;100996.97;5036054;28;45175;-64
2022/12/28 03:34:05;;;;;;;;;8.00;8.00;;;;;9.71;82.06;101014.41;5036710;28;45309;-63
2022/12/28 03:36:39;;;;;;;;;10.25;10.25;;;;;9.72;81.54;100997.75;5036873;28;46222;-64
2022/12/28 03:39:34;;;;;;;;;8.50;8.50;;;;;9.74;81.86;100997.69;5036600;28;45269;-62
2022/12/28 03:45:06;;;;;;;;;6.50;6.50;;;;;9.77;81.83;100992.34;5036496;28;45454;-65
2022/12/28 03:47:34;;;;;;;;;6.75;6.75;;;;;9.76;81.99;100980.09;5036192;28;46363;-62
2022/12/28 03:50:00;;;;;;;;;8.00;8.00;;;;;9.75;81.75;100988.91;5035933;28;45387;-63
2022/12/28 03:52:26;;;;;;;;;6.25;6.25;;;;;9.76;82.14;100980.97;5036118;28;45480;-63
2022/12/28 03:54:52;;;;;;;;;6.00;6.00;;;;;9.76;82.02;100982.75;5018294;28;45515;-65
2022/12/28 03:57:18;;;;;;;;;7.00;7.00;;;;;9.77;81.83;100987.09;5035858;28;45724;-64
2022/12/28 03:59:43;;;;;;;;;4.50;4.50;;;;;9.75;81.51;100983.66;5036132;28;45258;-63
2022/12/28 04:02:09;;;;;;;;;8.50;8.50;;;;;9.77;81.62;100985.34;5036413;28;45274;-65
2022/12/28 04:04:34;;;;;;;;;7.00;7.00;;;;;9.76;81.48;100975.72;5038200;28;45466;-64
2022/12/28 04:06:59;;;;;;;;;7.00;7.00;;;;;9.76;82.00;100978.34;5035774;28;45496;-67
2022/12/28 04:09:25;;;;;;;;;8.00;8.00;;;;;9.78;82.05;100968.66;5035262;28;56006;-65
2022/12/28 04:11:51;;;;;;;;;8.75;6.75;;;;;9.78;81.68;100968.66;5035692;28;45472;-64
2022/12/28 04:14:16;;;;;;;;;7.00;7.00;;;;;9.78;82.01;100957.28;5035870;28;45389;-63
2022/12/28 04:16:41;;;;;;;;;7.25;7.25;;;;;9.73;81.88;100941.69;5035157;28;63854;-67
2022/12/28 04:19:06;;;;;;;;;6.75;6.75;;;;;9.78;82.00;100946.78;5018020;28;53705;-66
2022/12/28 04:21:32;;;;;;;;;5.00;5.00;;;;;9.77;81.56;100947.69;5036803;28;45397;-65
2022/12/28 04:23:57;;;;;;;;;6.00;6.00;;;;;9.75;82.15;100947.75;5040650;28;46898;-63
2022/12/28 04:26:22;;;;;;;;;6.50;6.00;;;;;9.75;81.72;100933.72;5036738;28;46860;-62
2022/12/28 04:28:48;;;;;;;;;6.00;6.00;;;;;9.73;82.27;100928.53;5035622;28;45272;-65
2022/12/28 04:31:13;;;;;;;;;6.00;6.00;;;;;9.74;82.36;100932.00;5035521;28;45376;-65
2022/12/28 04:33:39;;;;;;;;;6.50;6.25;;;;;9.73;82.03;100932.91;5036025;28;45546;-67
2022/12/28 04:36:11;;;;;;;;;6.00;4.25;;;;;9.73;82.39;100927.66;5035372;28;45277;-67
2022/12/28 04:38:37;;;;;;;;;7.00;7.00;;;;;9.70;82.65;100923.38;5035782;28;45331;-64
2022/12/28 04:41:04;;;;;;;;;6.00;6.00;;;;;9.71;82.55;100926.84;5035494;28;45363;-67
2022/12/28 04:43:29;;;;;;;;;6.00;6.00;;;;;9.68;82.51;100925.19;5016478;28;45587;-64
2022/12/28 04:45:59;;;;;;;;;6.50;6.50;;;;;9.70;82.75;100931.25;5017203;28;46164;-63
2022/12/28 04:48:25;;;;;;;;;5.00;5.00;;;;;9.69;82.61;100929.53;5035273;28;45477;-63
2022/12/28 04:50:51;;;;;;;;;7.00;7.00;;;;;9.68;82.61;100925.19;5035616;28;45343;-62
2022/12/28 04:53:17;;;;;;;;;6.50;6.50;;;;;9.70;82.58;100925.13;5035203;28;45409;-65
2022/12/28 04:55:42;;;;;;;;;5.00;5.00;;;;;9.64;82.65;100913.91;5034907;28;46137;-65
2022/12/28 04:58:07;;;;;;;;;6.00;6.00;;;;;9.66;82.99;100919.13;5035352;28;45378;-64
2022/12/28 05:00:33;;;;;;;;;5.50;5.50;;;;;9.68;83.04;100914.69;5034734;28;49614;-65
2022/12/28 05:02:59;;;;;;;;;7.00;7.00;;;;;9.68;83.44;100911.19;5034943;28;45324;-63
2022/12/28 05:05:24;;;;;;;;;5.00;5.00;;;;;9.69;82.85;100915.53;5034801;28;45951;-65
2022/12/28 05:07:50;;;;;;;;;4.75;4.75;;;;;9.67;83.50;100907.72;5035014;28;45233;-66
2022/12/28 05:10:15;;;;;;;;;5.00;5.00;;;;;9.67;83.44;100904.22;5035053;28;45353;-62
2022/12/28 05:12:41;;;;;;;;;5.50;5.50;;;;;9.65;83.56;100905.13;5035507;28;45369;-63
2022/12/28 05:15:07;;;;;;;;;5.25;5.25;;;;;9.67;83.94;100907.72;5034651;28;45275;-63
2022/12/28 05:17:32;;;;;;;;;6.00;6.00;;;;;9.67;83.74;100904.22;5034828;28;45438;-65
2022/12/28 05:19:58;;;;;;;;;6.00;6.00;;;;;9.64;84.15;100887.66;5034666;28;45274;-65
2022/12/28 05:22:23;;;;;;;;;4.00;4.00;;;;;9.67;84.16;100899.84;5034897;28;45678;-67
2022/12/28 05:24:49;;;;;;;;;7.25;7.25;;;;;9.68;84.27;100898.06;5034610;28;46162;-63
2022/12/28 05:27:14;;;;;;;;;4.00;4.00;;;;;9.69;84.34;100900.66;5034823;28;45678;-63
2022/12/28 05:29:39;;;;;;;;;5.00;5.00;;;;;9.70;84.17;100902.38;5034731;28;51948;-64
2022/12/28 05:32:05;;;;;;;;;6.25;6.25;;;;;9.70;84.43;100902.38;5034736;28;45332;-67
2022/12/28 05:34:30;;;;;;;;;7.00;7.00;;;;;9.70;84.58;100899.75;5034620;28;46007;-69
2022/12/28 05:36:55;;;;;;;;;5.00;5.00;;;;;9.68;84.22;100883.16;5036572;28;45412;-66
2022/12/28 05:39:21;;;;;;;;;4.75;4.75;;;;;9.69;84.62;100884.88;5016721;28;45744;-67
2022/12/28 05:41:46;;;;;;;;;6.00;6.00;;;;;9.68;84.63;100887.53;5035054;28;45355;-64
2022/12/28 05:44:11;;;;;;;;;6.00;5.00;;;;;9.67;84.52;100885.81;5016908;28;46173;-65
2022/12/28 05:46:36;;;;;;;;;6.00;6.00;;;;;9.67;84.64;100893.72;5016591;28;45582;-66
2022/12/28 05:49:02;;;;;;;;;6.00;6.00;;;;;9.68;84.60;100891.06;5034338;28;49159;-67
2022/12/28 05:51:29;;;;;;;;;6.00;6.00;;;;;9.69;84.59;100887.50;5034818;28;45415;-65
2022/12/28 05:53:57;;;;;;;;;7.00;6.75;;;;;9.69;84.67;100886.63;5016279;28;46261;-65
2022/12/28 05:56:24;;;;;;;;;10.00;10.00;;;;;9.70;84.85;100881.34;5038068;28;45183;-63
2022/12/28 05:58:55;;;;;;;;;5.25;5.25;;;;;9.69;84.51;100889.25;5020029;28;45376;-63
2022/12/28 06:01:23;;;;;;;;;5.25;5.25;;;;;9.65;85.15;100875.38;5038274;28;45598;-64
2022/12/28 06:03:55;;;;;;;;;8.00;8.00;;;;;9.69;84.57;100881.38;5038000;28;45203;-64
2022/12/28 06:06:20;;;;;;;;;8.00;8.00;;;;;9.65;85.10;100872.75;5019676;28;45314;-63
2022/12/28 06:08:47;;;;;;;;;7.00;7.00;;;;;9.69;84.92;100871.75;5038055;28;45214;-65
2022/12/28 06:11:18;;;;;;;;;6.50;6.50;;;;;9.68;84.62;100871.78;5038958;28;45349;-64
2022/12/28 06:13:44;;;;;;;;;6.00;6.00;;;;;9.68;84.77;100866.53;5038279;28;46428;-63
2022/12/28 06:16:15;;;;;;;;;6.25;6.25;;;;;9.47;84.56;100833.00;5037879;28;45348;-65
2022/12/28 06:18:41;;;;;;;;;7.00;7.00;;;;;9.68;84.52;100866.53;5037451;28;45605;-70
2022/12/28 06:21:17;;;;;;;;;8.25;8.25;;;;;9.55;84.38;100839.81;5037554;28;45521;-67
2022/12/28 06:23:44;;;;;;;;;8.00;8.00;;;;;9.67;84.14;100849.06;5041209;28;46348;-69
2022/12/28 06:26:12;;;;;;;;;9.75;9.75;;;;;9.70;84.88;100855.09;5037017;28;45345;-67
2022/12/28 06:28:38;;;;;;;;;4.75;4.75;;;;;9.71;84.60;100848.03;5037151;28;45319;-68
2022/12/28 06:31:07;;;;;;;;;4.75;4.75;;;;;9.67;84.17;100834.16;5037309;28;45540;-67
2022/12/28 06:33:33;;;;;;;;;5.25;5.25;;;;;9.74;84.17;100842.69;5018945;28;45698;-69
2022/12/28 06:35:59;;;;;;;;;6.00;6.00;;;;;9.76;84.21;100823.34;5037235;28;45262;-70
2022/12/28 06:38:25;;;;;;;;;5.75;5.75;;;;;9.77;84.28;100825.06;5037336;28;45447;-67
2022/12/28 06:40:51;;;;;;;;;5.00;5.00;;;;;9.78;84.23;100834.69;5037530;28;45353;-68
2022/12/28 06:43:16;;;;;;;;;6.50;6.50;;;;;9.78;84.12;100821.53;5037028;28;46325;-66
2022/12/28 06:45:41;;;;;;;;;5.50;5.50;;;;;9.78;83.62;100816.28;5036614;28;57688;-63
2022/12/28 06:48:07;;;;;;;;;7.00;7.00;;;;;9.82;84.18;100817.03;5036998;28;45446;-63
2022/12/28 06:50:32;;;;;;;;;5.25;5.25;;;;;9.79;83.57;100818.00;5036461;28;56068;-62
2022/12/28 06:52:57;;;;;;;;;7.25;7.25;;;;;9.86;84.01;100826.53;5036378;28;56235;-65
2022/12/28 06:55:22;;;;;;;;;7.50;7.50;;;;;9.86;84.11;100815.16;5036405;28;64116;-63
2022/12/28 06:57:48;;;;;;;;;7.25;7.25;;;;;9.87;83.85;100822.16;5037321;28;45335;-64
2022/12/28 07:00:13;;;;;;;;;7.50;7.50;;;;;9.88;84.13;100811.56;5036470;28;52784;-67
2022/12/28 07:02:39;;;;;;;;;7.00;6.75;;;;;9.90;83.49;100822.88;5036513;28;46150;-64
2022/12/28 07:05:04;;;;;;;;;6.00;6.00;;;;;9.90;83.70;100808.91;5036671;28;45366;-63
2022/12/28 07:07:29;;;;;;;;;6.50;6.50;;;;;9.90;83.10;100807.13;5036067;28;45490;-66
2022/12/28 07:09:55;;;;;;;;;6.75;6.75;;;;;9.90;83.55;100798.41;5038290;28;45564;-62
2022/12/28 07:12:20;;;;;;;;;6.50;6.50;;;;;9.72;83.01;100768.34;5036566;28;45424;-62
2022/12/28 07:14:46;;;;;;;;;7.25;7.25;;;;;9.94;83.30;100797.38;5036716;28;45370;-64
2022/12/28 07:17:11;;;;;;;;;6.00;6.00;;;;;9.90;82.92;100782.63;5036544;28;45706;-64
2022/12/28 07:19:36;;;;;;;;;7.75;7.75;;;;;9.96;82.87;100794.69;5036255;28;45246;-65
2022/12/28 07:22:02;;;;;;;;;9.00;9.00;;;;;9.87;83.15;100785.34;5036161;28;45948;-64
2022/12/28 07:24:28;;;;;;;;;7.00;7.00;;;;;9.93;83.24;100787.78;5036049;28;45435;-65
2022/12/28 07:26:53;;;;;;;;;7.00;7.00;;;;;9.99;83.16;100789.31;5036495;28;45360;-62
2022/12/28 07:29:18;;;;;;;;;7.50;7.50;;;;;10.01;83.24;100780.47;5036807;28;45641;-64
2022/12/28 07:31:43;;;;;;;;;6.75;6.75;;;;;10.01;83.13;100777.84;5017799;28;58820;-68
2022/12/28 07:34:09;;;;;;;;;6.00;6.00;;;;;10.01;82.73;100775.22;5036032;28;46842;-64
2022/12/28 07:36:34;;;;;;;;;6.00;6.00;;;;;10.03;82.34;100778.66;5036859;28;45322;-67
2022/12/28 07:39:00;;;;;;;;;5.50;5.50;;;;;10.01;82.70;100775.22;5036582;28;45367;-71
2022/12/28 07:41:28;;;;;;;;;8.00;8.00;;;;;9.96;82.56;100763.16;5036000;28;47036;-66
2022/12/28 07:43:54;;;;;;;;;6.50;6.50;;;;;10.03;82.30;100773.41;5036370;28;45539;-66
2022/12/28 07:46:25;;;;;;;;;6.00;6.00;;;;;10.05;82.71;100765.44;5036741;28;45253;-66
2022/12/28 07:48:51;;;;;;;;;7.50;7.50;;;;;10.08;82.53;100778.50;5019055;28;45211;-67
2022/12/28 07:51:31;;;;;;;;;6.25;6.25;;;;;10.06;82.62;100761.91;5035977;28;46103;-70
2022/12/28 07:53:58;;;;;;;;;5.75;5.75;;;;;10.06;82.42;100756.66;5035348;28;45409;-66
2022/12/28 07:56:25;;;;;;;;;4.75;4.75;;;;;10.06;81.90;100775.94;5039289;28;45336;-63
2022/12/28 07:58:53;;;;;;;;;7.50;7.50;;;;;10.05;82.24;100761.06;5036356;28;45433;-66
2022/12/28 08:01:22;;;;;;;;;5.00;5.00;;;;;10.05;82.11;100758.44;5036182;28;47268;-65
2022/12/28 08:03:47;;;;;;;;;7.00;7.00;;;;;10.05;82.34;100750.56;5035463;28;45341;-68
2022/12/28 08:06:14;;;;;;;;;8.00;8.00;;;;;10.06;82.14;100757.53;5035556;28;45422;-63
2022/12/28 08:08:44;;;;;;;;;7.00;7.00;;;;;10.06;82.45;100744.38;5035795;28;45547;-62
2022/12/28 08:11:12;;;;;;;;;6.25;6.25;;;;;10.07;82.07;100738.22;5035069;28;45443;-66
2022/12/28 08:13:40;;;;;;;;;11.75;11.75;;;;;10.09;82.42;100740.81;5035374;28;45324;-68
2022/12/28 08:16:07;;;;;;;;;7.50;7.50;;;;;10.08;82.08;100734.69;5035567;28;45287;-67
2022/12/28 08:18:32;;;;;;;;;6.00;6.00;;;;;10.05;81.96;100724.28;5035195;28;45465;-66
2022/12/28 08:21:11;;;;;;;;;8.00;8.00;;;;;10.14;82.19;100730.13;5034851;28;45339;-68
2022/12/28 08:23:37;;;;;;;;;5.00;5.00;;;;;10.14;81.65;100725.72;5016677;28;45462;-67
2022/12/28 08:26:11;;;;;;;;;13.00;13.00;;;;;10.14;81.62;100728.34;5035166;28;45507;-68
2022/12/28 08:28:38;;;;;;;;;7.00;7.00;;;;;10.17;81.58;100720.34;5035411;28;45337;-68
2022/12/28 08:31:14;;;;;;;;;5.75;5.75;;;;;10.19;81.51;100713.28;5035110;28;45411;-68
2022/12/28 08:33:39;;;;;;;;;4.50;4.50;;;;;10.17;81.51;100709.84;5035236;28;45489;-67
2022/12/28 08:36:06;;;;;;;;;11.25;11.25;;;;;10.20;81.18;100707.09;5035311;28;45230;-66
2022/12/28 08:38:32;;;;;;;;;9.00;9.00;;;;;10.19;81.55;100708.00;5017576;28;45582;-68
2022/12/28 08:41:00;;;;;;;;;6.75;6.75;;;;;10.23;81.34;100700.84;5035106;28;46312;-68
2022/12/28 08:43:29;;;;;;;;;7.00;7.00;;;;;10.25;80.93;100703.44;5036174;28;45513;-69
2022/12/28 08:46:10;;;;;;;;;6.75;6.75;;;;;10.22;81.28;100701.78;5035557;28;45255;-62
2022/12/28 08:48:35;;;;;;;;;6.75;6.75;;;;;10.21;81.32;100702.69;5035295;28;45527;-63
2022/12/28 08:51:10;;;;;;;;;9.25;9.25;;;;;10.17;81.06;100699.34;5034765;28;45343;-64
2022/12/28 08:53:37;;;;;;;;;8.50;8.00;;;;;10.22;80.87;100704.41;5034952;28;45405;-65
2022/12/28 08:56:26;;;;;;;;;6.75;6.75;;;;;10.24;80.79;100699.94;5035092;28;45336;-64
2022/12/28 08:58:53;;;;;;;;;7.00;5.75;;;;;10.22;81.16;100707.91;5035259;28;45338;-66
2022/12/28 09:01:27;;;;;;;;;9.25;9.25;;;;;10.25;80.93;100693.78;5034769;28;46763;-68
2022/12/28 09:03:54;;;;;;;;;7.25;7.25;;;;;10.26;80.75;100692.84;5035042;28;45278;-67
2022/12/28 09:06:23;;;;;;;;;4.00;4.00;;;;;10.28;80.31;100691.03;5035003;28;45235;-65
2022/12/28 09:08:52;;;;;;;;;6.25;6.00;;;;;10.31;80.51;100685.66;5034785;28;45345;-68
2022/12/28 09:11:17;;;;;;;;;5.25;5.25;;;;;10.32;80.43;100682.09;5034644;28;45316;-67
2022/12/28 09:13:43;;;;;;;;;5.00;5.00;;;;;10.34;80.32;100682.91;5034563;28;45261;-64
2022/12/28 09:16:11;;;;;;;;;4.50;4.50;;;;;10.40;80.49;100686.25;5034537;28;45477;-67
2022/12/28 09:18:37;;;;;;;;;7.00;7.00;;;;;10.40;80.18;100684.50;5034798;28;45348;-69
2022/12/28 09:21:14;;;;;;;;;7.75;7.75;;;;;10.46;79.95;100675.50;5034344;28;46464;-67
2022/12/28 09:23:41;;;;;;;;;6.50;5.25;;;;;10.49;79.73;100686.78;5034210;28;45457;-68
2022/12/28 09:26:13;;;;;;;;;4.25;4.25;;;;;10.53;79.65;100676.97;5034587;28;45252;-68
2022/12/28 09:28:43;;;;;;;;;4.75;4.75;;;;;10.55;79.60;100662.00;5035258;28;45297;-69
2022/12/28 09:31:08;;;;;;;;;6.00;6.00;;;;;10.58;79.90;100669.75;5020488;28;45395;-67
2022/12/28 09:36:19;;;;;;;;;6.75;6.75;;;;;10.60;78.87;100657.44;5038297;28;45341;-69
2022/12/28 09:38:45;;;;;;;;;8.00;8.00;;;;;10.62;79.34;100666.13;5038566;28;45441;-70
2022/12/28 09:41:30;;;;;;;;;6.00;6.00;;;;;10.65;79.62;100660.75;5020695;28;46101;-69
2022/12/28 09:44:16;;;;;;;;;11.25;11.25;;;;;10.68;79.40;100651.88;5038586;28;45783;-65
2022/12/28 09:47:11;;;;;;;;;6.00;6.00;;;;;10.70;79.50;100655.28;5038070;28;45439;-68
2022/12/28 09:50:01;;;;;;;;;8.00;8.00;;;;;10.71;79.25;100659.63;5038651;28;45432;-66
2022/12/28 09:52:29;;;;;;;;;8.25;8.25;;;;;10.72;79.15;100665.78;5038238;28;46923;-66
2022/12/28 09:55:03;;;;;;;;;7.75;7.75;;;;;10.71;78.18;100656.16;5019634;28;45811;-63
2022/12/28 09:57:35;;;;;;;;;7.00;7.00;;;;;10.73;78.97;100656.97;5037740;28;45382;-63
2022/12/28 10:00:01;;;;;;;;;6.25;6.25;;;;;10.68;78.54;100640.50;5037732;28;45393;-67
2022/12/28 10:02:33;;;;;;;;;8.25;8.25;;;;;10.60;78.88;100627.63;5037744;28;47153;-68
2022/12/28 10:04:59;;;;;;;;;7.00;7.00;;;;;10.77;78.35;100661.19;5037786;28;45422;-64
2022/12/28 10:07:24;;;;;;;;;5.75;5.75;;;;;10.63;78.69;100633.66;5019705;28;45294;-69
2022/12/28 10:09:50;;;;;;;;;8.25;8.25;;;;;10.86;78.33;100663.44;5037568;28;45175;-66
2022/12/28 10:12:20;;;;;;;;;9.00;9.00;;;;;10.87;78.19;100652.00;5037249;28;45309;-66
2022/12/28 10:14:46;;;;;;;;;8.00;8.00;;;;;10.93;78.10;100656.13;5037353;28;45377;-63
2022/12/28 10:17:14;;;;;;;;;6.50;6.50;;;;;10.96;77.77;100649.00;5037824;28;45503;-66
2022/12/28 10:19:39;;;;;;;;;6.00;6.00;;;;;10.98;77.60;100648.06;5037836;28;45467;-68
2022/12/28 10:22:13;;;;;;;;;6.00;6.00;;;;;10.98;77.56;100633.13;5037545;28;45695;-68
2022/12/28 10:24:39;;;;;;;;;7.00;7.00;;;;;10.98;77.64;100630.47;5037282;28;45458;-69
2022/12/28 10:27:06;;;;;;;;;6.00;6.00;;;;;11.00;77.18;100628.66;5037399;28;45234;-67
2022/12/28 10:29:33;;;;;;;;;6.00;6.00;;;;;11.01;77.12;100626.88;5037383;28;45586;-67
2022/12/28 10:32:01;;;;;;;;;5.00;5.00;;;;;11.07;77.04;100631.91;5037254;28;46309;-67
2022/12/28 10:34:28;;;;;;;;;2.75;2.75;;;;;11.06;76.89;100632.81;5036784;28;45384;-67
2022/12/28 10:36:57;;;;;;;;;4.50;4.50;;;;;11.05;76.42;100623.22;5036845;28;45328;-66
2022/12/28 10:39:26;;;;;;;;;5.50;5.50;;;;;11.03;76.49;100622.41;5037270;28;45313;-64
2022/12/28 10:41:53;;;;;;;;;15.25;15.25;;;;;11.02;76.42;100631.22;5035708;28;46082;-65
2022/12/28 10:44:30;;;;;;;;;7.00;7.00;;;;;11.00;76.43;100626.00;5036943;28;45268;-68
2022/12/28 10:47:02;;;;;;;;;5.00;5.00;;;;;10.98;76.06;100622.59;5037151;28;45178;-70
2022/12/28 10:49:36;;;;;;;;;5.00;5.00;;;;;11.01;76.30;100608.47;5037291;28;45560;-67
2022/12/28 10:52:17;;;;;;;;;4.75;4.75;;;;;11.00;75.70;100609.38;5037330;28;46351;-64
2022/12/28 10:54:42;;;;;;;;;7.00;7.00;;;;;10.98;75.83;100598.91;5036623;28;45238;-68
2022/12/28 10:57:19;;;;;;;;;6.00;6.00;;;;;10.98;75.77;100587.53;5036765;28;45253;-69
2022/12/28 10:59:45;;;;;;;;;6.00;5.50;;;;;11.01;75.45;100603.19;5037120;28;45317;-68
2022/12/28 11:02:31;;;;;;;;;5.00;5.00;;;;;11.01;75.27;100587.41;5037094;28;45879;-70
2022/12/28 11:05:04;;;;;;;;;8.00;8.00;;;;;11.01;75.26;100590.03;5018698;28;45428;-67
2022/12/28 11:07:35;;;;;;;;;8.00;8.00;;;;;11.03;75.43;100590.81;5040239;28;45248;-70
2022/12/28 11:10:19;;;;;;;;;6.75;6.75;;;;;11.04;75.12;100582.00;5020417;28;45493;-66
2022/12/28 11:12:45;;;;;;;;;7.25;7.00;;;;;11.04;75.19;100567.06;5021170;28;47731;-66
2022/12/28 11:15:16;;;;;;;;;5.75;5.75;;;;;11.07;74.51;100564.28;5019740;28;50081;-65
2022/12/28 11:17:43;;;;;;;;;7.00;7.00;;;;;11.09;74.72;100545.81;5039319;28;45383;-64
2022/12/28 11:20:25;;;;;;;;;13.00;13.00;;;;;11.13;74.76;100550.03;5020342;28;45369;-66
2022/12/28 11:22:51;;;;;;;;;12.50;12.50;;;;;11.09;74.74;100522.97;5019171;28;46965;-64
2022/12/28 11:25:18;;;;;;;;;5.00;5.00;;;;;11.12;74.36;100500.94;5037205;28;45530;-67
2022/12/28 11:27:46;;;;;;;;;6.00;6.00;;;;;11.27;73.88;100519.59;5036462;28;45289;-68
2022/12/28 11:30:16;;;;;;;;;5.00;5.00;;;;;11.32;74.09;100512.34;5036454;28;45191;-65
2022/12/28 11:32:49;;;;;;;;;6.75;6.75;;;;;11.36;73.71;100506.03;5036057;28;45586;-66
2022/12/28 11:35:17;;;;;;;;;6.00;6.00;;;;;11.36;73.28;100503.41;5001269;28;45467;-69
2022/12/28 11:37:55;;;;;;;;;5.50;5.50;;;;;11.37;73.51;100502.47;5035779;28;45349;-64
2022/12/28 11:40:49;;;;;;;;;5.50;5.50;;;;;11.40;73.38;100497.94;5036034;28;45456;-65
2022/12/28 11:43:29;;;;;;;;;8.25;8.25;;;;;11.43;73.32;100499.56;5027746;28;47115;-67
2022/12/28 11:46:02;;;;;;;;;5.25;5.25;;;;;11.44;73.22;100496.00;5035576;28;45321;-69
2022/12/28 11:48:41;;;;;;;;;8.25;8.25;;;;;11.40;73.38;100484.78;5037609;28;45254;-68
2022/12/28 11:51:29;;;;;;;;;7.00;7.00;;;;;11.46;73.19;100494.16;5036380;28;45304;-67
2022/12/28 11:54:49;;;;;;;;;5.00;5.00;;;;;11.46;73.20;100498.59;5035105;28;47419;-70
2022/12/28 11:57:32;;;;;;;;;4.00;4.00;;;;;11.45;72.99;100473.16;5036159;28;45429;-69
2022/12/28 12:00:20;;;;;;;;;6.50;6.50;;;;;11.45;72.94;100481.91;5017483;28;45408;-66
2022/12/28 12:02:47;;;;;;;;;7.00;7.00;;;;;11.46;73.52;100469.59;5035854;28;45506;-67
2022/12/28 12:05:34;;;;;;;;;6.50;6.50;;;;;11.47;73.48;100469.53;5035370;28;46188;-67
2022/12/28 12:08:00;;;;;;;;;15.25;15.25;;;;;11.48;73.66;100455.44;5036281;28;45304;-70
2022/12/28 12:10:32;;;;;;;;;5.25;5.25;;;;;11.49;73.40;100457.13;5018909;28;45317;-71